Monday, November 20, 2017, 4:14 AM GMT
Back to Local

CYYY, Mont Joli, Que.

Location: , , Canada Lat: 48.6
Local Time: 4:14 AM GMT ( 4:14 GMT) Lon: -68.217
Time Zone: GMT Elev: 157 ft

Show me the last for .
Show Decoded

2017-11-20 03:00 METAR CYYY 200300Z 24023G30KT 15SM OVC025 M00/M03 A2913 RMK SC8 SLP868 =
2017-11-20 02:36 METAR CYYY 200236Z 24019G29KT 15SM OVC028 00/M02 A2911 RMK SC8 SLP863 =
2017-11-20 02:00 METAR CYYY 200200Z 24019G27KT 10SM -SN SCT010 OVC030 00/M02 A2910 RMK SF3SC5
                 SLP856 =
2017-11-20 01:38 METAR CYYY 200138Z 24017G23KT 6SM -SN SCT009 OVC025 00/M01 A2908 RMK SF4SC4
                 SLP851 =
2017-11-20 01:23 METAR CYYY 200123Z 24015G25KT 4SM -SN BKN009 OVC019 00/M01 A2907 RMK SF5SC3
                 SLP848 =
2017-11-20 01:18 METAR CYYY 200118Z 24016G23KT 2SM -SN BKN008 OVC015 00/M01 A2907 RMK SF5SC3
                 SLP847 =
2017-11-20 01:09 METAR CYYY 200109Z 24014G23KT 2SM -SN OVC006 00/M00 A2906 RMK SF8 SLP845 =
2017-11-20 01:00 METAR CYYY 200100Z 24013G19KT 1 1/2SM -RASN OVC004 00/00 A2906 RMK SN2SF6 SLP845
                 =
2017-11-20 00:44 METAR CYYY 200044Z 25016G23KT 1 1/2SM -RASN OVC003 01/01 A2905 RMK SN2SF6 PRESRR
                 SLP841 =
2017-11-20 00:26 METAR CYYY 200026Z 27015G23KT 2SM -RA BR OVC003 01/01 A2903 RMK SF8 SLP835 =
2017-11-20 00:00 METAR CYYY 200000Z 24015G23KT 1 3/4SM -RA BR OVC003 02/02 A2902 RMK SF8 SLP829 =
2017-11-19 23:00 METAR CYYY 192300Z 21004KT 1 1/2SM -RA BR BKN004 OVC010 01/01 A2899 RMK SF6SC2
                 SLP819 =
2017-11-19 22:44 METAR CYYY 192244Z 18002KT 1 1/2SM -RA BR OVC003 02/02 A2898 RMK ST8 SLP818 =
2017-11-19 22:00 METAR CYYY 192200Z 00000KT 2SM -RA BR BKN003 OVC012 02/02 A2897 RMK SF6SC2
                 SLP814 =
2017-11-19 21:50 METAR CYYY 192150Z 00000KT 2SM -RA BR OVC003 02/02 A2897 RMK ST8 SLP814 =
2017-11-19 21:35 METAR CYYY 192135Z 05007KT 2SM -RA BR SCT004 OVC013 02/02 A2897 RMK SF4SC4
                 SLP814 =
2017-11-19 21:00 METAR CYYY 192100Z 02006KT 5SM -RA BR FEW004 OVC015 02/02 A2897 RMK SF2SC6
                 SLP814 =
2017-11-19 20:32 METAR CYYY 192032Z 02006KT 5SM -RA BR SCT004 OVC015 02/02 A2898 RMK SF3SC5
                 SLP816 =
2017-11-19 20:00 METAR CYYY 192000Z 34003KT 300V360 10SM -RA OVC017 03/02 A2899 RMK SC8 SLP820 =
2017-11-19 19:43 METAR CYYY 191943Z 00000KT 10SM -RA OVC017 03/02 A2899 RMK SC8 SLP820 =
2017-11-19 19:00 METAR CYYY 191900Z 34004KT 330V060 5SM -RA OVC013 03/02 A2899 RMK SC8 SLP821 =
2017-11-19 18:54 METAR CYYY 191854Z 03006KT 10SM -RA OVC013 03/02 A2899 RMK SC8 SLP819 =
2017-11-19 18:00 METAR CYYY 191800Z 05009KT 15SM -RA OVC016 03/01 A2901 RMK SC8 SLP828 =
2017-11-19 17:41 METAR CYYY 191741Z 05010KT 15SM -RA OVC017 03/01 A2903 RMK SC8 PRESFR SLP833 =
2017-11-19 17:22 METAR CYYY 191722Z 05010KT 15SM OVC018 02/01 A2905 RMK SC8 SLP842 =
2017-11-19 17:00 METAR CYYY 191700Z 06009KT 15SM -RA OVC015 02/01 A2907 RMK SC8 PRESFR SLP848 =
2017-11-19 16:00 METAR CYYY 191600Z 05010KT 15SM -RA BKN015 OVC041 02/01 A2913 RMK SC6SC2 SLP868
                 =
2017-11-19 15:00 METAR CYYY 191500Z 08008KT 5SM -RA BR SCT015 OVC041 01/00 A2918 RMK SF3SC5
                 SLP885 =
2017-11-19 14:00 METAR CYYY 191400Z 07008KT 5SM -RA BR SCT015 OVC040 01/M00 A2924 RMK SF3SC5
                 PRESFR SLP906 =
2017-11-19 13:00 METAR CYYY 191300Z 08011KT 3SM -RA BR FEW015 OVC048 00/M01 A2929 RMK SF2SC6
                 SLP922 =
2017-11-19 12:51 METAR CYYY 191251Z 08009G15KT 3SM -RA OVC049 00/M01 A2930 RMK SC8 SLP925 =
2017-11-19 12:00 METAR CYYY 191200Z 09012KT 3SM -FZRA BR SCT036 OVC056 M00/M01 A2932 RMK SC3SC5
                 PRESFR SLP932 =
2017-11-19 11:00 METAR CYYY 191100Z 08009KT 040V130 10SM -FZRA OVC050 M00/M02 A2936 RMK SC8
                 SLP948 =
2017-11-19 10:00 METAR CYYY 191000Z 10011G18KT 15SM -FZRA OVC042 M00/M03 A2941 RMK SC8 PRESFR
                 SLP965 =
2017-11-19 09:42 METAR CYYY 190942Z 11009G16KT 10SM -FZRA OVC045 M00/M04 A2943 RMK SC8 SLP972 =
2017-11-19 09:00 METAR CYYY 190900Z 10007KT 15SM OVC040 M02/M04 A2945 RMK SC8 PRESFR SLP977 =
2017-11-19 08:00 METAR CYYY 190800Z 06007KT 15SM OVC040 M03/M05 A2952 RMK SC8 SLP002 =
2017-11-19 07:00 METAR CYYY 190700Z 08010KT 15SM OVC090 M03/M05 A2957 RMK AC8 SLP019 =
2017-11-19 06:00 METAR CYYY 190600Z 08008KT 15SM OVC090 M03/M06 A2958 RMK AC8 SLP020 =
2017-11-19 05:00 METAR CYYY 190500Z 08006KT 15SM OVC120 M04/M06 A2962 RMK AC8 PRESFR SLP035 =

Support USWX by starting your Amazon purchase here.